sensor_id;sensor_type;location;lat;lon;timestamp;P1;durP1;ratioP1;P2;durP2;ratioP2
25481;SDS011;13395;50.752;4.268;2023-08-08T00:01:00;6.20;;;2.75;;
25481;SDS011;13395;50.752;4.268;2023-08-08T00:03:26;10.73;;;2.95;;
25481;SDS011;13395;50.752;4.268;2023-08-08T00:05:52;13.20;;;3.90;;
25481;SDS011;13395;50.752;4.268;2023-08-08T00:08:17;15.05;;;4.13;;
25481;SDS011;13395;50.752;4.268;2023-08-08T00:10:43;14.05;;;3.70;;
25481;SDS011;13395;50.752;4.268;2023-08-08T00:13:09;12.93;;;3.53;;
25481;SDS011;13395;50.752;4.268;2023-08-08T00:15:34;11.93;;;3.75;;
25481;SDS011;13395;50.752;4.268;2023-08-08T00:18:00;9.13;;;3.85;;
25481;SDS011;13395;50.752;4.268;2023-08-08T00:20:26;8.52;;;2.97;;
25481;SDS011;13395;50.752;4.268;2023-08-08T00:22:52;8.00;;;3.45;;
25481;SDS011;13395;50.752;4.268;2023-08-08T00:25:17;13.82;;;3.83;;
25481;SDS011;13395;50.752;4.268;2023-08-08T00:27:43;14.60;;;3.97;;
25481;SDS011;13395;50.752;4.268;2023-08-08T00:30:09;8.00;;;3.38;;
25481;SDS011;13395;50.752;4.268;2023-08-08T00:32:36;7.72;;;3.38;;
25481;SDS011;13395;50.752;4.268;2023-08-08T00:35:01;12.88;;;3.75;;
25481;SDS011;13395;50.752;4.268;2023-08-08T00:37:27;7.72;;;3.42;;
25481;SDS011;13395;50.752;4.268;2023-08-08T00:39:53;7.78;;;3.15;;
25481;SDS011;13395;50.752;4.268;2023-08-08T00:42:18;9.10;;;3.40;;
25481;SDS011;13395;50.752;4.268;2023-08-08T00:44:44;9.13;;;4.45;;
25481;SDS011;13395;50.752;4.268;2023-08-08T00:47:09;8.55;;;4.43;;
25481;SDS011;13395;50.752;4.268;2023-08-08T00:49:37;10.82;;;3.60;;
25481;SDS011;13395;50.752;4.268;2023-08-08T00:52:03;9.20;;;3.97;;
25481;SDS011;13395;50.752;4.268;2023-08-08T00:54:29;8.15;;;3.72;;
25481;SDS011;13395;50.752;4.268;2023-08-08T00:56:55;14.88;;;3.63;;
25481;SDS011;13395;50.752;4.268;2023-08-08T00:59:21;18.10;;;4.68;;
25481;SDS011;13395;50.752;4.268;2023-08-08T01:01:48;11.05;;;3.17;;
25481;SDS011;13395;50.752;4.268;2023-08-08T01:04:13;9.00;;;4.70;;
25481;SDS011;13395;50.752;4.268;2023-08-08T01:06:43;13.10;;;3.78;;
25481;SDS011;13395;50.752;4.268;2023-08-08T01:09:33;8.02;;;4.05;;
25481;SDS011;13395;50.752;4.268;2023-08-08T01:12:04;11.57;;;3.92;;
25481;SDS011;13395;50.752;4.268;2023-08-08T01:14:33;7.78;;;3.20;;
25481;SDS011;13395;50.752;4.268;2023-08-08T01:17:00;13.35;;;3.63;;
25481;SDS011;13395;50.752;4.268;2023-08-08T01:19:27;8.60;;;3.67;;
25481;SDS011;13395;50.752;4.268;2023-08-08T01:21:57;6.90;;;4.25;;
25481;SDS011;13395;50.752;4.268;2023-08-08T01:24:28;14.57;;;4.03;;
25481;SDS011;13395;50.752;4.268;2023-08-08T01:27:01;10.43;;;3.90;;
25481;SDS011;13395;50.752;4.268;2023-08-08T01:29:27;16.10;;;4.68;;
25481;SDS011;13395;50.752;4.268;2023-08-08T01:31:52;7.55;;;3.72;;
25481;SDS011;13395;50.752;4.268;2023-08-08T01:34:18;8.20;;;4.03;;
25481;SDS011;13395;50.752;4.268;2023-08-08T01:39:50;11.38;;;3.78;;
25481;SDS011;13395;50.752;4.268;2023-08-08T01:42:16;23.10;;;5.55;;
25481;SDS011;13395;50.752;4.268;2023-08-08T01:44:44;10.00;;;3.78;;
25481;SDS011;13395;50.752;4.268;2023-08-08T01:47:10;6.95;;;3.65;;
25481;SDS011;13395;50.752;4.268;2023-08-08T01:49:36;7.55;;;3.90;;
25481;SDS011;13395;50.752;4.268;2023-08-08T01:52:02;13.02;;;4.10;;
25481;SDS011;13395;50.752;4.268;2023-08-08T01:54:27;10.02;;;4.20;;
25481;SDS011;13395;50.752;4.268;2023-08-08T01:56:53;8.57;;;3.95;;
25481;SDS011;13395;50.752;4.268;2023-08-08T01:59:19;12.32;;;4.38;;
25481;SDS011;13395;50.752;4.268;2023-08-08T02:01:44;9.57;;;3.92;;
25481;SDS011;13395;50.752;4.268;2023-08-08T02:04:10;11.43;;;3.92;;
25481;SDS011;13395;50.752;4.268;2023-08-08T02:06:35;7.28;;;3.58;;
25481;SDS011;13395;50.752;4.268;2023-08-08T02:09:01;12.38;;;4.15;;
25481;SDS011;13395;50.752;4.268;2023-08-08T02:11:27;9.63;;;3.95;;
25481;SDS011;13395;50.752;4.268;2023-08-08T02:13:53;11.30;;;3.83;;
25481;SDS011;13395;50.752;4.268;2023-08-08T02:16:18;14.13;;;4.45;;
25481;SDS011;13395;50.752;4.268;2023-08-08T02:18:44;17.05;;;4.45;;
25481;SDS011;13395;50.752;4.268;2023-08-08T02:21:09;11.05;;;4.00;;
25481;SDS011;13395;50.752;4.268;2023-08-08T02:23:35;13.32;;;6.00;;
25481;SDS011;13395;50.752;4.268;2023-08-08T02:26:01;7.82;;;3.60;;
25481;SDS011;13395;50.752;4.268;2023-08-08T02:28:27;12.45;;;4.35;;
25481;SDS011;13395;50.752;4.268;2023-08-08T02:30:53;12.25;;;4.25;;
25481;SDS011;13395;50.752;4.268;2023-08-08T02:33:19;13.88;;;4.20;;
25481;SDS011;13395;50.752;4.268;2023-08-08T02:35:44;16.60;;;4.80;;
25481;SDS011;13395;50.752;4.268;2023-08-08T02:38:10;15.35;;;4.45;;
25481;SDS011;13395;50.752;4.268;2023-08-08T02:40:36;10.95;;;4.10;;
25481;SDS011;13395;50.752;4.268;2023-08-08T02:43:01;9.80;;;4.50;;
25481;SDS011;13395;50.752;4.268;2023-08-08T02:45:27;10.52;;;4.32;;
25481;SDS011;13395;50.752;4.268;2023-08-08T02:47:52;11.23;;;5.95;;
25481;SDS011;13395;50.752;4.268;2023-08-08T02:50:18;13.43;;;4.68;;
25481;SDS011;13395;50.752;4.268;2023-08-08T02:52:44;14.80;;;4.82;;
25481;SDS011;13395;50.752;4.268;2023-08-08T02:55:09;13.38;;;4.38;;
25481;SDS011;13395;50.752;4.268;2023-08-08T02:57:35;13.45;;;4.80;;
25481;SDS011;13395;50.752;4.268;2023-08-08T03:00:01;12.70;;;4.68;;
25481;SDS011;13395;50.752;4.268;2023-08-08T03:02:28;14.25;;;5.18;;
25481;SDS011;13395;50.752;4.268;2023-08-08T03:04:54;11.50;;;4.65;;
25481;SDS011;13395;50.752;4.268;2023-08-08T03:07:19;17.67;;;5.15;;
25481;SDS011;13395;50.752;4.268;2023-08-08T03:09:45;16.30;;;5.50;;
25481;SDS011;13395;50.752;4.268;2023-08-08T03:12:11;12.23;;;4.75;;
25481;SDS011;13395;50.752;4.268;2023-08-08T03:14:36;14.13;;;5.15;;
25481;SDS011;13395;50.752;4.268;2023-08-08T03:17:02;21.40;;;5.53;;
25481;SDS011;13395;50.752;4.268;2023-08-08T03:19:28;19.73;;;5.15;;
25481;SDS011;13395;50.752;4.268;2023-08-08T03:21:53;14.80;;;3.97;;
25481;SDS011;13395;50.752;4.268;2023-08-08T03:24:19;15.60;;;5.15;;
25481;SDS011;13395;50.752;4.268;2023-08-08T03:26:44;14.85;;;5.20;;
25481;SDS011;13395;50.752;4.268;2023-08-08T03:29:10;13.60;;;5.18;;
25481;SDS011;13395;50.752;4.268;2023-08-08T03:31:37;13.75;;;4.53;;
25481;SDS011;13395;50.752;4.268;2023-08-08T03:34:03;10.18;;;5.00;;
25481;SDS011;13395;50.752;4.268;2023-08-08T03:36:29;13.68;;;5.22;;
25481;SDS011;13395;50.752;4.268;2023-08-08T03:38:55;15.77;;;5.38;;
25481;SDS011;13395;50.752;4.268;2023-08-08T03:41:21;13.65;;;5.15;;
25481;SDS011;13395;50.752;4.268;2023-08-08T03:43:46;17.88;;;6.07;;
25481;SDS011;13395;50.752;4.268;2023-08-08T03:46:12;14.25;;;5.82;;
25481;SDS011;13395;50.752;4.268;2023-08-08T03:48:38;13.02;;;5.47;;
25481;SDS011;13395;50.752;4.268;2023-08-08T03:51:04;17.13;;;5.82;;
25481;SDS011;13395;50.752;4.268;2023-08-08T03:53:29;16.35;;;6.05;;
25481;SDS011;13395;50.752;4.268;2023-08-08T03:55:55;19.20;;;6.45;;
25481;SDS011;13395;50.752;4.268;2023-08-08T03:58:21;12.35;;;5.38;;
25481;SDS011;13395;50.752;4.268;2023-08-08T04:00:46;13.65;;;6.05;;
25481;SDS011;13395;50.752;4.268;2023-08-08T04:03:15;13.63;;;5.15;;
25481;SDS011;13395;50.752;4.268;2023-08-08T04:05:44;22.35;;;6.53;;
25481;SDS011;13395;50.752;4.268;2023-08-08T04:08:11;10.13;;;5.13;;
25481;SDS011;13395;50.752;4.268;2023-08-08T04:10:38;16.55;;;6.75;;
25481;SDS011;13395;50.752;4.268;2023-08-08T04:13:03;14.65;;;5.72;;
25481;SDS011;13395;50.752;4.268;2023-08-08T04:15:29;18.60;;;6.30;;
25481;SDS011;13395;50.752;4.268;2023-08-08T04:17:54;16.88;;;5.68;;
25481;SDS011;13395;50.752;4.268;2023-08-08T04:20:20;13.35;;;5.90;;
25481;SDS011;13395;50.752;4.268;2023-08-08T04:22:45;21.80;;;6.50;;
25481;SDS011;13395;50.752;4.268;2023-08-08T04:25:11;13.90;;;5.82;;
25481;SDS011;13395;50.752;4.268;2023-08-08T04:27:37;14.63;;;5.15;;
25481;SDS011;13395;50.752;4.268;2023-08-08T04:30:02;25.38;;;6.57;;
25481;SDS011;13395;50.752;4.268;2023-08-08T04:32:29;18.75;;;5.65;;
25481;SDS011;13395;50.752;4.268;2023-08-08T04:34:55;12.77;;;5.50;;
25481;SDS011;13395;50.752;4.268;2023-08-08T04:37:21;18.25;;;6.28;;
25481;SDS011;13395;50.752;4.268;2023-08-08T04:39:46;34.17;;;7.25;;
25481;SDS011;13395;50.752;4.268;2023-08-08T04:42:12;21.50;;;6.25;;
25481;SDS011;13395;50.752;4.268;2023-08-08T04:44:37;18.08;;;5.93;;
25481;SDS011;13395;50.752;4.268;2023-08-08T04:47:03;17.80;;;6.05;;
25481;SDS011;13395;50.752;4.268;2023-08-08T04:49:29;18.55;;;6.43;;
25481;SDS011;13395;50.752;4.268;2023-08-08T04:51:55;13.80;;;5.85;;
25481;SDS011;13395;50.752;4.268;2023-08-08T04:54:20;15.32;;;6.80;;
25481;SDS011;13395;50.752;4.268;2023-08-08T04:56:46;16.98;;;5.88;;
25481;SDS011;13395;50.752;4.268;2023-08-08T04:59:12;13.35;;;6.13;;
25481;SDS011;13395;50.752;4.268;2023-08-08T05:01:37;27.65;;;8.23;;
25481;SDS011;13395;50.752;4.268;2023-08-08T05:04:03;14.77;;;5.10;;
25481;SDS011;13395;50.752;4.268;2023-08-08T05:06:29;15.43;;;5.47;;
25481;SDS011;13395;50.752;4.268;2023-08-08T05:08:54;11.32;;;4.32;;
25481;SDS011;13395;50.752;4.268;2023-08-08T05:11:21;12.18;;;4.80;;
25481;SDS011;13395;50.752;4.268;2023-08-08T05:13:47;8.80;;;4.57;;
25481;SDS011;13395;50.752;4.268;2023-08-08T05:16:13;13.38;;;4.22;;
25481;SDS011;13395;50.752;4.268;2023-08-08T05:18:38;13.73;;;3.40;;
25481;SDS011;13395;50.752;4.268;2023-08-08T05:21:04;6.93;;;2.83;;
25481;SDS011;13395;50.752;4.268;2023-08-08T05:23:30;11.88;;;2.92;;
25481;SDS011;13395;50.752;4.268;2023-08-08T05:25:56;10.00;;;3.72;;
25481;SDS011;13395;50.752;4.268;2023-08-08T05:28:21;11.20;;;3.45;;
25481;SDS011;13395;50.752;4.268;2023-08-08T05:30:47;15.80;;;3.38;;
25481;SDS011;13395;50.752;4.268;2023-08-08T05:33:12;11.48;;;3.22;;
25481;SDS011;13395;50.752;4.268;2023-08-08T05:35:38;12.10;;;3.17;;
25481;SDS011;13395;50.752;4.268;2023-08-08T05:38:03;10.07;;;2.80;;
25481;SDS011;13395;50.752;4.268;2023-08-08T05:40:29;10.15;;;3.03;;
25481;SDS011;13395;50.752;4.268;2023-08-08T05:42:55;9.68;;;2.80;;
25481;SDS011;13395;50.752;4.268;2023-08-08T05:45:20;18.98;;;3.80;;
25481;SDS011;13395;50.752;4.268;2023-08-08T05:47:46;12.30;;;3.90;;
25481;SDS011;13395;50.752;4.268;2023-08-08T05:50:11;10.45;;;3.05;;
25481;SDS011;13395;50.752;4.268;2023-08-08T05:52:37;13.38;;;3.78;;
25481;SDS011;13395;50.752;4.268;2023-08-08T05:55:02;8.25;;;3.30;;
25481;SDS011;13395;50.752;4.268;2023-08-08T05:57:28;12.05;;;3.38;;
25481;SDS011;13395;50.752;4.268;2023-08-08T05:59:54;14.68;;;3.60;;
25481;SDS011;13395;50.752;4.268;2023-08-08T06:02:20;8.10;;;3.75;;
25481;SDS011;13395;50.752;4.268;2023-08-08T06:04:45;9.77;;;3.10;;
25481;SDS011;13395;50.752;4.268;2023-08-08T06:07:11;13.35;;;3.88;;
25481;SDS011;13395;50.752;4.268;2023-08-08T06:09:36;10.20;;;4.07;;
25481;SDS011;13395;50.752;4.268;2023-08-08T06:12:02;19.75;;;4.30;;
25481;SDS011;13395;50.752;4.268;2023-08-08T06:14:30;16.33;;;3.70;;
25481;SDS011;13395;50.752;4.268;2023-08-08T06:16:56;15.40;;;4.15;;
25481;SDS011;13395;50.752;4.268;2023-08-08T06:19:21;8.65;;;3.38;;
25481;SDS011;13395;50.752;4.268;2023-08-08T06:21:47;11.85;;;3.70;;
25481;SDS011;13395;50.752;4.268;2023-08-08T06:24:13;12.18;;;3.47;;
25481;SDS011;13395;50.752;4.268;2023-08-08T06:26:39;14.35;;;2.95;;
25481;SDS011;13395;50.752;4.268;2023-08-08T06:29:05;14.95;;;3.70;;
25481;SDS011;13395;50.752;4.268;2023-08-08T06:31:30;14.95;;;3.58;;
25481;SDS011;13395;50.752;4.268;2023-08-08T06:33:56;13.13;;;3.33;;
25481;SDS011;13395;50.752;4.268;2023-08-08T06:36:21;11.60;;;3.33;;
25481;SDS011;13395;50.752;4.268;2023-08-08T06:38:47;11.25;;;3.17;;
25481;SDS011;13395;50.752;4.268;2023-08-08T06:41:13;14.73;;;4.13;;
25481;SDS011;13395;50.752;4.268;2023-08-08T06:43:47;13.82;;;3.72;;
25481;SDS011;13395;50.752;4.268;2023-08-08T06:46:13;9.05;;;3.42;;
25481;SDS011;13395;50.752;4.268;2023-08-08T06:48:39;13.38;;;3.20;;
25481;SDS011;13395;50.752;4.268;2023-08-08T06:51:07;11.73;;;3.05;;
25481;SDS011;13395;50.752;4.268;2023-08-08T06:53:33;11.35;;;3.47;;
25481;SDS011;13395;50.752;4.268;2023-08-08T06:55:58;11.60;;;3.38;;
25481;SDS011;13395;50.752;4.268;2023-08-08T06:58:24;7.85;;;2.92;;
25481;SDS011;13395;50.752;4.268;2023-08-08T07:00:50;16.08;;;2.75;;
25481;SDS011;13395;50.752;4.268;2023-08-08T07:03:15;14.27;;;2.95;;
25481;SDS011;13395;50.752;4.268;2023-08-08T07:05:41;9.70;;;3.05;;
25481;SDS011;13395;50.752;4.268;2023-08-08T07:08:07;8.82;;;3.38;;
25481;SDS011;13395;50.752;4.268;2023-08-08T07:10:33;8.45;;;2.60;;
25481;SDS011;13395;50.752;4.268;2023-08-08T07:13:00;12.85;;;3.00;;
25481;SDS011;13395;50.752;4.268;2023-08-08T07:15:26;25.88;;;3.40;;
25481;SDS011;13395;50.752;4.268;2023-08-08T07:20:21;20.60;;;3.50;;
25481;SDS011;13395;50.752;4.268;2023-08-08T07:22:47;11.90;;;3.15;;
25481;SDS011;13395;50.752;4.268;2023-08-08T07:25:13;10.63;;;2.92;;
25481;SDS011;13395;50.752;4.268;2023-08-08T07:27:39;11.00;;;3.08;;
25481;SDS011;13395;50.752;4.268;2023-08-08T07:30:05;7.32;;;2.95;;
25481;SDS011;13395;50.752;4.268;2023-08-08T07:32:32;13.52;;;3.80;;
25481;SDS011;13395;50.752;4.268;2023-08-08T07:34:58;10.02;;;3.03;;
25481;SDS011;13395;50.752;4.268;2023-08-08T07:37:23;14.60;;;4.22;;
25481;SDS011;13395;50.752;4.268;2023-08-08T07:39:52;12.25;;;3.80;;
25481;SDS011;13395;50.752;4.268;2023-08-08T07:42:17;12.60;;;3.90;;
25481;SDS011;13395;50.752;4.268;2023-08-08T07:44:43;11.88;;;3.70;;
25481;SDS011;13395;50.752;4.268;2023-08-08T07:47:09;13.20;;;3.17;;
25481;SDS011;13395;50.752;4.268;2023-08-08T07:49:34;13.80;;;3.80;;
25481;SDS011;13395;50.752;4.268;2023-08-08T07:52:00;10.48;;;3.15;;
25481;SDS011;13395;50.752;4.268;2023-08-08T07:54:25;14.68;;;3.90;;
25481;SDS011;13395;50.752;4.268;2023-08-08T07:56:51;15.50;;;3.63;;
25481;SDS011;13395;50.752;4.268;2023-08-08T07:59:16;11.18;;;3.38;;
25481;SDS011;13395;50.752;4.268;2023-08-08T08:01:42;12.02;;;4.20;;
25481;SDS011;13395;50.752;4.268;2023-08-08T08:04:08;7.95;;;2.72;;
25481;SDS011;13395;50.752;4.268;2023-08-08T08:06:33;4.95;;;2.50;;
25481;SDS011;13395;50.752;4.268;2023-08-08T08:08:59;10.05;;;2.83;;
25481;SDS011;13395;50.752;4.268;2023-08-08T08:11:25;8.88;;;2.75;;
25481;SDS011;13395;50.752;4.268;2023-08-08T08:13:50;8.90;;;2.90;;
25481;SDS011;13395;50.752;4.268;2023-08-08T08:16:16;6.55;;;2.58;;
25481;SDS011;13395;50.752;4.268;2023-08-08T08:18:41;10.60;;;2.80;;
25481;SDS011;13395;50.752;4.268;2023-08-08T08:21:07;8.50;;;2.20;;
25481;SDS011;13395;50.752;4.268;2023-08-08T08:23:33;16.00;;;2.75;;
25481;SDS011;13395;50.752;4.268;2023-08-08T08:25:58;7.72;;;2.55;;
25481;SDS011;13395;50.752;4.268;2023-08-08T08:28:25;9.45;;;2.50;;
25481;SDS011;13395;50.752;4.268;2023-08-08T08:30:51;7.53;;;1.90;;
25481;SDS011;13395;50.752;4.268;2023-08-08T08:33:16;10.75;;;2.35;;
25481;SDS011;13395;50.752;4.268;2023-08-08T08:35:42;8.02;;;2.10;;
25481;SDS011;13395;50.752;4.268;2023-08-08T08:38:07;5.70;;;1.98;;
25481;SDS011;13395;50.752;4.268;2023-08-08T08:40:36;7.60;;;2.03;;
25481;SDS011;13395;50.752;4.268;2023-08-08T08:43:03;7.05;;;2.42;;
25481;SDS011;13395;50.752;4.268;2023-08-08T08:45:29;9.05;;;2.45;;
25481;SDS011;13395;50.752;4.268;2023-08-08T08:47:56;13.15;;;2.78;;
25481;SDS011;13395;50.752;4.268;2023-08-08T08:50:26;8.05;;;2.00;;
25481;SDS011;13395;50.752;4.268;2023-08-08T08:52:53;11.05;;;3.95;;
25481;SDS011;13395;50.752;4.268;2023-08-08T08:55:22;10.32;;;2.63;;
25481;SDS011;13395;50.752;4.268;2023-08-08T08:57:48;8.80;;;3.30;;
25481;SDS011;13395;50.752;4.268;2023-08-08T09:00:15;5.88;;;2.17;;
25481;SDS011;13395;50.752;4.268;2023-08-08T09:02:41;10.70;;;3.67;;
25481;SDS011;13395;50.752;4.268;2023-08-08T09:05:07;7.47;;;2.40;;
25481;SDS011;13395;50.752;4.268;2023-08-08T09:07:33;13.35;;;2.40;;
25481;SDS011;13395;50.752;4.268;2023-08-08T09:10:00;8.63;;;2.25;;
25481;SDS011;13395;50.752;4.268;2023-08-08T09:12:25;7.43;;;2.28;;
25481;SDS011;13395;50.752;4.268;2023-08-08T09:14:55;5.85;;;2.10;;
25481;SDS011;13395;50.752;4.268;2023-08-08T09:17:27;10.35;;;3.00;;
25481;SDS011;13395;50.752;4.268;2023-08-08T09:19:53;12.18;;;2.65;;
25481;SDS011;13395;50.752;4.268;2023-08-08T09:22:20;12.15;;;2.63;;
25481;SDS011;13395;50.752;4.268;2023-08-08T09:24:46;8.27;;;2.15;;
25481;SDS011;13395;50.752;4.268;2023-08-08T09:27:12;4.40;;;1.95;;
25481;SDS011;13395;50.752;4.268;2023-08-08T09:29:38;7.55;;;2.10;;
25481;SDS011;13395;50.752;4.268;2023-08-08T09:32:04;9.38;;;2.50;;
25481;SDS011;13395;50.752;4.268;2023-08-08T09:34:31;7.38;;;1.98;;
25481;SDS011;13395;50.752;4.268;2023-08-08T09:36:57;8.07;;;2.10;;
25481;SDS011;13395;50.752;4.268;2023-08-08T09:39:23;6.00;;;1.75;;
25481;SDS011;13395;50.752;4.268;2023-08-08T09:41:48;7.97;;;2.88;;
25481;SDS011;13395;50.752;4.268;2023-08-08T09:44:14;8.90;;;2.40;;
25481;SDS011;13395;50.752;4.268;2023-08-08T09:46:40;9.27;;;2.65;;
25481;SDS011;13395;50.752;4.268;2023-08-08T09:49:06;8.38;;;2.05;;
25481;SDS011;13395;50.752;4.268;2023-08-08T09:51:34;5.35;;;1.92;;
25481;SDS011;13395;50.752;4.268;2023-08-08T09:54:00;5.28;;;1.98;;
25481;SDS011;13395;50.752;4.268;2023-08-08T09:56:27;5.38;;;2.03;;
25481;SDS011;13395;50.752;4.268;2023-08-08T09:58:53;7.50;;;1.95;;
25481;SDS011;13395;50.752;4.268;2023-08-08T10:01:21;6.40;;;1.77;;
25481;SDS011;13395;50.752;4.268;2023-08-08T10:03:47;6.43;;;2.05;;
25481;SDS011;13395;50.752;4.268;2023-08-08T10:06:16;4.55;;;1.77;;
25481;SDS011;13395;50.752;4.268;2023-08-08T10:08:41;7.97;;;1.73;;
25481;SDS011;13395;50.752;4.268;2023-08-08T10:11:08;10.80;;;2.90;;
25481;SDS011;13395;50.752;4.268;2023-08-08T10:13:35;7.38;;;1.67;;
25481;SDS011;13395;50.752;4.268;2023-08-08T10:16:03;9.10;;;1.60;;
25481;SDS011;13395;50.752;4.268;2023-08-08T10:18:33;6.28;;;1.58;;
25481;SDS011;13395;50.752;4.268;2023-08-08T10:20:59;8.80;;;2.30;;
25481;SDS011;13395;50.752;4.268;2023-08-08T10:23:25;6.65;;;1.90;;
25481;SDS011;13395;50.752;4.268;2023-08-08T10:25:52;8.25;;;1.98;;
25481;SDS011;13395;50.752;4.268;2023-08-08T10:28:20;7.78;;;1.70;;
25481;SDS011;13395;50.752;4.268;2023-08-08T10:30:49;8.15;;;2.05;;
25481;SDS011;13395;50.752;4.268;2023-08-08T10:33:22;5.20;;;2.05;;
25481;SDS011;13395;50.752;4.268;2023-08-08T10:38:21;7.35;;;1.60;;
25481;SDS011;13395;50.752;4.268;2023-08-08T10:40:58;5.97;;;1.77;;
25481;SDS011;13395;50.752;4.268;2023-08-08T10:43:28;7.43;;;1.73;;
25481;SDS011;13395;50.752;4.268;2023-08-08T10:45:58;5.13;;;1.48;;
25481;SDS011;13395;50.752;4.268;2023-08-08T10:48:25;3.08;;;1.20;;
25481;SDS011;13395;50.752;4.268;2023-08-08T10:50:53;3.95;;;1.23;;
25481;SDS011;13395;50.752;4.268;2023-08-08T10:53:22;3.40;;;1.10;;
25481;SDS011;13395;50.752;4.268;2023-08-08T10:55:56;4.47;;;1.10;;
25481;SDS011;13395;50.752;4.268;2023-08-08T10:58:36;3.05;;;1.10;;
25481;SDS011;13395;50.752;4.268;2023-08-08T11:01:03;8.95;;;1.40;;
25481;SDS011;13395;50.752;4.268;2023-08-08T11:03:37;2.40;;;1.20;;
25481;SDS011;13395;50.752;4.268;2023-08-08T11:06:05;4.70;;;1.50;;
25481;SDS011;13395;50.752;4.268;2023-08-08T11:08:31;4.15;;;1.30;;
25481;SDS011;13395;50.752;4.268;2023-08-08T11:10:58;8.02;;;2.80;;
25481;SDS011;13395;50.752;4.268;2023-08-08T11:13:24;3.88;;;1.10;;
25481;SDS011;13395;50.752;4.268;2023-08-08T11:15:50;3.75;;;1.35;;
25481;SDS011;13395;50.752;4.268;2023-08-08T11:18:16;4.28;;;1.10;;
25481;SDS011;13395;50.752;4.268;2023-08-08T11:20:41;5.22;;;1.30;;
25481;SDS011;13395;50.752;4.268;2023-08-08T11:23:07;3.80;;;1.67;;
25481;SDS011;13395;50.752;4.268;2023-08-08T11:25:35;4.97;;;1.95;;
25481;SDS011;13395;50.752;4.268;2023-08-08T11:28:02;5.75;;;1.20;;
25481;SDS011;13395;50.752;4.268;2023-08-08T11:30:32;3.90;;;1.20;;
25481;SDS011;13395;50.752;4.268;2023-08-08T11:33:00;5.20;;;1.90;;
25481;SDS011;13395;50.752;4.268;2023-08-08T11:35:25;5.47;;;1.27;;
25481;SDS011;13395;50.752;4.268;2023-08-08T11:37:52;4.70;;;1.33;;
25481;SDS011;13395;50.752;4.268;2023-08-08T11:40:20;6.88;;;1.20;;
25481;SDS011;13395;50.752;4.268;2023-08-08T11:42:47;3.28;;;1.33;;
25481;SDS011;13395;50.752;4.268;2023-08-08T11:45:15;4.20;;;1.58;;
25481;SDS011;13395;50.752;4.268;2023-08-08T11:47:41;5.65;;;1.38;;
25481;SDS011;13395;50.752;4.268;2023-08-08T11:50:08;2.80;;;1.48;;
25481;SDS011;13395;50.752;4.268;2023-08-08T11:52:36;5.55;;;1.60;;
25481;SDS011;13395;50.752;4.268;2023-08-08T11:55:06;4.03;;;1.23;;
25481;SDS011;13395;50.752;4.268;2023-08-08T11:57:33;3.25;;;1.27;;
25481;SDS011;13395;50.752;4.268;2023-08-08T12:00:00;1.55;;;0.93;;
25481;SDS011;13395;50.752;4.268;2023-08-08T12:02:37;6.20;;;1.38;;
25481;SDS011;13395;50.752;4.268;2023-08-08T12:05:10;3.65;;;1.42;;
25481;SDS011;13395;50.752;4.268;2023-08-08T12:07:37;3.92;;;1.08;;
25481;SDS011;13395;50.752;4.268;2023-08-08T12:10:12;3.60;;;1.08;;
25481;SDS011;13395;50.752;4.268;2023-08-08T12:12:43;4.50;;;1.02;;
25481;SDS011;13395;50.752;4.268;2023-08-08T12:15:10;5.97;;;1.45;;
25481;SDS011;13395;50.752;4.268;2023-08-08T12:17:36;5.05;;;1.20;;
25481;SDS011;13395;50.752;4.268;2023-08-08T12:20:05;6.22;;;1.00;;
25481;SDS011;13395;50.752;4.268;2023-08-08T12:22:32;2.45;;;1.42;;
25481;SDS011;13395;50.752;4.268;2023-08-08T12:24:59;5.85;;;1.10;;
25481;SDS011;13395;50.752;4.268;2023-08-08T12:27:25;5.13;;;1.10;;
25481;SDS011;13395;50.752;4.268;2023-08-08T12:29:50;4.30;;;1.30;;
25481;SDS011;13395;50.752;4.268;2023-08-08T12:32:18;3.05;;;1.40;;
25481;SDS011;13395;50.752;4.268;2023-08-08T12:34:44;6.97;;;1.33;;
25481;SDS011;13395;50.752;4.268;2023-08-08T12:37:10;3.30;;;1.17;;
25481;SDS011;13395;50.752;4.268;2023-08-08T12:39:35;2.55;;;1.05;;
25481;SDS011;13395;50.752;4.268;2023-08-08T12:42:01;6.32;;;1.48;;
25481;SDS011;13395;50.752;4.268;2023-08-08T12:44:27;4.10;;;1.60;;
25481;SDS011;13395;50.752;4.268;2023-08-08T12:46:52;5.57;;;1.48;;
25481;SDS011;13395;50.752;4.268;2023-08-08T12:49:18;4.43;;;1.20;;
25481;SDS011;13395;50.752;4.268;2023-08-08T12:51:43;3.97;;;1.30;;
25481;SDS011;13395;50.752;4.268;2023-08-08T12:54:09;7.35;;;1.40;;
25481;SDS011;13395;50.752;4.268;2023-08-08T12:56:35;4.32;;;1.90;;
25481;SDS011;13395;50.752;4.268;2023-08-08T12:59:01;4.45;;;1.35;;
25481;SDS011;13395;50.752;4.268;2023-08-08T13:01:27;5.32;;;1.50;;
25481;SDS011;13395;50.752;4.268;2023-08-08T13:03:53;4.32;;;1.13;;
25481;SDS011;13395;50.752;4.268;2023-08-08T13:06:19;3.17;;;1.08;;
25481;SDS011;13395;50.752;4.268;2023-08-08T13:08:44;3.50;;;0.95;;
25481;SDS011;13395;50.752;4.268;2023-08-08T13:11:10;7.47;;;1.02;;
25481;SDS011;13395;50.752;4.268;2023-08-08T13:13:35;2.08;;;1.10;;
25481;SDS011;13395;50.752;4.268;2023-08-08T13:16:01;3.72;;;0.85;;
25481;SDS011;13395;50.752;4.268;2023-08-08T13:18:28;4.82;;;1.00;;
25481;SDS011;13395;50.752;4.268;2023-08-08T13:20:53;7.07;;;0.90;;
25481;SDS011;13395;50.752;4.268;2023-08-08T13:23:19;2.15;;;0.73;;
25481;SDS011;13395;50.752;4.268;2023-08-08T13:25:44;3.00;;;0.90;;
25481;SDS011;13395;50.752;4.268;2023-08-08T13:28:11;2.75;;;0.93;;
25481;SDS011;13395;50.752;4.268;2023-08-08T13:30:36;1.88;;;0.90;;
25481;SDS011;13395;50.752;4.268;2023-08-08T13:33:02;1.70;;;0.93;;
25481;SDS011;13395;50.752;4.268;2023-08-08T13:35:28;4.18;;;0.82;;
25481;SDS011;13395;50.752;4.268;2023-08-08T13:37:55;2.03;;;0.90;;
25481;SDS011;13395;50.752;4.268;2023-08-08T13:40:21;1.80;;;0.85;;
25481;SDS011;13395;50.752;4.268;2023-08-08T13:42:46;1.38;;;0.70;;
25481;SDS011;13395;50.752;4.268;2023-08-08T13:45:19;6.13;;;1.00;;
25481;SDS011;13395;50.752;4.268;2023-08-08T13:47:45;4.78;;;1.15;;
25481;SDS011;13395;50.752;4.268;2023-08-08T13:50:12;1.10;;;0.70;;
25481;SDS011;13395;50.752;4.268;2023-08-08T13:52:39;3.35;;;1.10;;
25481;SDS011;13395;50.752;4.268;2023-08-08T13:55:05;2.30;;;1.00;;
25481;SDS011;13395;50.752;4.268;2023-08-08T13:57:32;2.92;;;1.00;;
25481;SDS011;13395;50.752;4.268;2023-08-08T13:59:57;2.78;;;0.90;;
25481;SDS011;13395;50.752;4.268;2023-08-08T14:02:23;1.60;;;0.70;;
25481;SDS011;13395;50.752;4.268;2023-08-08T14:04:49;1.67;;;0.75;;
25481;SDS011;13395;50.752;4.268;2023-08-08T14:07:17;1.98;;;0.77;;
25481;SDS011;13395;50.752;4.268;2023-08-08T14:09:43;1.73;;;0.80;;
25481;SDS011;13395;50.752;4.268;2023-08-08T14:12:08;3.03;;;0.85;;
25481;SDS011;13395;50.752;4.268;2023-08-08T14:14:34;3.53;;;0.90;;
25481;SDS011;13395;50.752;4.268;2023-08-08T14:16:59;2.35;;;0.98;;
25481;SDS011;13395;50.752;4.268;2023-08-08T14:19:25;2.00;;;0.70;;
25481;SDS011;13395;50.752;4.268;2023-08-08T14:21:50;4.13;;;1.30;;
25481;SDS011;13395;50.752;4.268;2023-08-08T14:24:16;4.13;;;0.80;;
25481;SDS011;13395;50.752;4.268;2023-08-08T14:26:42;5.95;;;1.17;;
25481;SDS011;13395;50.752;4.268;2023-08-08T14:29:07;2.85;;;0.95;;
25481;SDS011;13395;50.752;4.268;2023-08-08T14:31:33;2.67;;;0.95;;
25481;SDS011;13395;50.752;4.268;2023-08-08T14:33:58;4.28;;;0.80;;
25481;SDS011;13395;50.752;4.268;2023-08-08T14:36:24;4.88;;;0.90;;
25481;SDS011;13395;50.752;4.268;2023-08-08T14:38:50;2.72;;;0.90;;
25481;SDS011;13395;50.752;4.268;2023-08-08T14:41:15;2.20;;;0.93;;
25481;SDS011;13395;50.752;4.268;2023-08-08T14:43:41;1.83;;;1.00;;